Current Conditions
Clear
Conditions



Pressure
1018.96 (hPa) - 30.09 (inHG)
Visibility

2.0 (km) - 1.2 (miles)
Temperature
0  °C
Temperature
0  °C
Dewpoint
100  %
 Humidity
Wind Speed
5  km/h
3  kts
3  mph
1.3  m/s
Wind Direction
N
45°
E
90°
135°
S
180°
225°
W
270°
315°
 180°

Due South
Airport Data
EDQM
Hof-Plauen Airport
Metar :EDQM 290050Z AUTO 18003KT 2000 // NCD M00/M00 Q1019
Thu 29th February 01:50 am
Raw Metar Info
Raw METAR is the most common format in the world for the transmission of observational weather data. It is highly standardized through the International Civil Aviation Organization (ICAO), which allows it to be understood throughout most of the world.
API Info
Data Provided by
https://www.checkwx.com/weather/EDQM

Aviation Weather providing METAR, TAF, AIRMET, SIGMET and OUTLOOK Weather Reports
© Info
CSS/SVG/PHP scripts were developed by weather34 for use in the weather34 template © 2015-2024

Guide Info provided by Metar-Wikipedia